createdAt,value
2019-05-03T00:01:25.979Z,33.83
2019-05-03T00:04:14.637Z,34.75
2019-05-03T00:06:53.722Z,37.75
2019-05-03T00:09:33.459Z,37.42
2019-05-03T00:12:08.447Z,43.25
2019-05-03T00:15:13.343Z,45.63
2019-05-03T00:20:42.026Z,52.93
2019-05-03T00:23:16.536Z,57.98
2019-05-03T00:25:52.331Z,68.07
2019-05-03T00:28:27.552Z,52.33
2019-05-03T00:31:02.671Z,48.42
2019-05-03T00:33:38.938Z,48.10
2019-05-03T00:36:15.332Z,48.38
2019-05-03T00:38:49.688Z,50.70
2019-05-03T00:41:24.702Z,54.85
2019-05-03T00:43:59.897Z,50.23
2019-05-03T00:49:08.787Z,59.03
2019-05-03T00:51:43.787Z,56.30
2019-05-03T00:54:16.165Z,53.60
2019-05-03T00:56:53.093Z,56.05
2019-05-03T00:59:29.568Z,56.28
2019-05-03T01:02:08.106Z,56.42
2019-05-03T01:04:42.723Z,53.30
2019-05-03T01:07:19.466Z,52.15
2019-05-03T01:09:55.546Z,53.95
2019-05-03T01:12:32.180Z,51.33
2019-05-03T01:15:14.440Z,54.20
2019-05-03T01:17:52.802Z,53.33
2019-05-03T01:20:27.093Z,52.62
2019-05-03T01:23:25.461Z,43.10
2019-05-03T01:26:02.503Z,38.40
2019-05-03T01:28:38.450Z,36.58
2019-05-03T01:31:22.727Z,42.20
2019-05-03T01:33:57.460Z,33.73
2019-05-03T01:36:35.058Z,26.45
2019-05-03T01:39:08.911Z,23.83
2019-05-03T01:42:17.339Z,23.77
2019-05-03T01:45:02.304Z,28.17
2019-05-03T01:47:48.650Z,21.37
2019-05-03T01:50:32.011Z,22.10
2019-05-03T01:53:07.466Z,22.90
2019-05-03T01:56:03.628Z,23.47
2019-05-03T01:58:44.702Z,24.60
2019-05-03T02:01:28.630Z,25.43
2019-05-03T02:04:05.243Z,25.35
2019-05-03T02:06:38.670Z,24.57
2019-05-03T02:09:12.219Z,24.20
2019-05-03T02:11:45.072Z,21.55
2019-05-03T02:14:17.345Z,22.35
2019-05-03T02:16:49.314Z,23.57
2019-05-03T02:19:22.903Z,22.50
2019-05-03T02:21:55.157Z,21.55
2019-05-03T02:24:28.481Z,20.60
2019-05-03T02:27:03.263Z,25.72
2019-05-03T02:29:38.342Z,23.35
2019-05-03T02:32:13.343Z,20.05
2019-05-03T02:34:50.161Z,20.70
2019-05-03T02:37:23.340Z,23.77
2019-05-03T02:39:58.803Z,22.13
2019-05-03T02:42:34.899Z,22.17
2019-05-03T02:45:12.273Z,21.20
2019-05-03T02:47:52.117Z,18.32
2019-05-03T02:50:28.859Z,19.73
2019-05-03T02:53:01.099Z,20.40
2019-05-03T02:55:35.925Z,23.57
2019-05-03T02:58:07.915Z,20.90
2019-05-03T03:01:00.059Z,22.50
2019-05-03T03:03:36.556Z,21.27
2019-05-03T03:06:10.853Z,21.55
2019-05-03T03:08:45.588Z,19.15
2019-05-03T03:11:19.867Z,20.88
2019-05-03T03:13:56.361Z,24.85
2019-05-03T03:16:32.090Z,22.52
2019-05-03T03:19:07.457Z,20.72
2019-05-03T03:21:48.297Z,24.37
2019-05-03T03:24:25.765Z,21.93
2019-05-03T03:27:05.323Z,24.67
2019-05-03T03:29:45.899Z,21.82
2019-05-03T03:32:38.653Z,22.37
2019-05-03T03:35:29.023Z,24.70
2019-05-03T03:38:06.266Z,23.62
2019-05-03T03:40:46.975Z,26.05
2019-05-03T03:43:26.003Z,28.30
2019-05-03T03:46:05.522Z,30.55
2019-05-03T03:48:45.981Z,31.93
2019-05-03T03:51:26.136Z,30.23
2019-05-03T03:54:06.073Z,38.75
2019-05-03T03:56:59.316Z,37.05
2019-05-03T03:59:30.152Z,35.05
2019-05-03T04:02:07.658Z,33.40
2019-05-03T04:04:46.003Z,38.05
2019-05-03T04:07:25.984Z,39.83
2019-05-03T04:10:01.240Z,37.15
2019-05-03T04:12:48.956Z,41.13
2019-05-03T04:15:45.293Z,35.83
2019-05-03T04:19:45.251Z,39.18
2019-05-03T04:22:17.861Z,40.03
2019-05-03T04:24:55.304Z,41.75
2019-05-03T04:27:28.695Z,41.85
2019-05-03T04:30:17.615Z,44.18
2019-05-03T04:32:56.179Z,41.35
2019-05-03T04:35:30.970Z,42.98
2019-05-03T04:38:09.015Z,38.73
2019-05-03T04:40:41.965Z,37.48
2019-05-03T04:43:16.528Z,31.77
2019-05-03T04:55:20.562Z,33.08
2019-05-03T04:58:00.108Z,28.67
2019-05-03T05:00:36.744Z,25.90
2019-05-03T05:03:10.228Z,28.32
2019-05-03T05:05:46.100Z,24.23
2019-05-03T05:08:26.773Z,27.10
2019-05-03T05:11:02.116Z,21.37
2019-05-03T05:13:40.338Z,24.55
2019-05-03T05:16:16.982Z,23.15
2019-05-03T05:19:15.186Z,24.63
2019-05-03T05:21:51.505Z,26.57
2019-05-03T05:24:34.505Z,23.27
2019-05-03T05:27:48.797Z,21.57
2019-05-03T05:33:29.534Z,18.82
2019-05-03T05:36:12.825Z,19.48
2019-05-03T05:41:29.523Z,15.93
2019-05-03T05:44:27.457Z,16.80
2019-05-03T05:47:15.011Z,12.03
2019-05-03T05:50:08.948Z,12.13
2019-05-03T05:52:45.644Z,12.33
2019-05-03T05:55:45.143Z,13.93
2019-05-03T05:58:30.098Z,11.20
2019-05-03T06:03:50.691Z,14.75
2019-05-03T06:06:45.184Z,16.12
2019-05-03T06:09:28.394Z,15.00
2019-05-03T06:12:04.433Z,17.23
2019-05-03T06:14:54.419Z,16.45
2019-05-03T06:17:31.448Z,15.72
2019-05-03T06:20:25.694Z,14.83
2019-05-03T06:23:16.738Z,13.48
2019-05-03T06:26:21.843Z,15.00
2019-05-03T06:31:50.305Z,15.38
2019-05-03T06:34:25.594Z,15.83
2019-05-03T06:37:41.001Z,17.25
2019-05-03T06:40:25.251Z,17.02
2019-05-03T06:43:08.455Z,14.93
2019-05-03T06:45:41.160Z,16.80
2019-05-03T06:48:17.733Z,17.25
2019-05-03T06:51:20.120Z,18.45
2019-05-03T06:54:20.443Z,14.20
2019-05-03T06:57:00.153Z,17.70
2019-05-03T06:59:50.350Z,15.23
2019-05-03T07:02:37.321Z,16.48
2019-05-03T07:05:12.182Z,16.30
2019-05-03T07:07:51.620Z,18.25
2019-05-03T07:10:29.255Z,17.67
2019-05-03T07:13:19.533Z,22.13
2019-05-03T07:16:51.098Z,19.80
2019-05-03T07:19:28.998Z,19.85
2019-05-03T07:22:06.694Z,23.50
2019-05-03T07:24:46.129Z,18.02
2019-05-03T07:27:26.765Z,18.73
2019-05-03T07:30:05.804Z,19.23
2019-05-03T07:32:46.972Z,21.15
2019-05-03T07:35:29.699Z,18.27
2019-05-03T07:38:11.000Z,16.27
2019-05-03T07:40:44.676Z,16.60
2019-05-03T07:43:27.434Z,15.70
2019-05-03T07:46:01.586Z,12.65
2019-05-03T07:51:14.561Z,12.90
2019-05-03T07:53:55.572Z,13.15
2019-05-03T07:56:41.851Z,12.95
2019-05-03T07:59:15.952Z,11.12
2019-05-03T08:01:54.606Z,12.05
2019-05-03T08:04:31.548Z,12.75
2019-05-03T08:07:19.924Z,11.05
2019-05-03T08:10:55.080Z,9.98
2019-05-03T08:13:55.022Z,9.43
2019-05-03T08:16:39.431Z,10.85
2019-05-03T08:20:31.139Z,11.20
2019-05-03T08:23:24.420Z,7.05
2019-05-03T08:25:55.748Z,6.72
2019-05-03T08:28:36.412Z,10.40
2019-05-03T08:31:35.553Z,7.97
2019-05-03T08:34:25.595Z,7.05
2019-05-03T08:38:50.850Z,7.55
2019-05-03T08:41:35.255Z,8.23
2019-05-03T08:44:11.211Z,7.53
2019-05-03T08:46:56.565Z,8.95
2019-05-03T08:49:31.442Z,7.90
2019-05-03T08:52:06.186Z,9.10
2019-05-03T08:54:38.151Z,9.10
2019-05-03T08:57:15.902Z,9.23
2019-05-03T08:59:54.972Z,10.85
2019-05-03T09:02:30.000Z,11.05
2019-05-03T09:05:05.140Z,10.38
2019-05-03T09:07:37.602Z,10.18
2019-05-03T09:10:24.912Z,11.38
2019-05-03T09:13:07.422Z,9.58
2019-05-03T09:15:44.548Z,9.25
2019-05-03T09:18:17.618Z,9.05
2019-05-03T09:20:50.771Z,11.08
2019-05-03T09:23:26.065Z,10.20
2019-05-03T09:26:06.809Z,11.88
2019-05-03T09:28:39.825Z,12.63
2019-05-03T09:31:12.699Z,11.75
2019-05-03T09:33:46.468Z,13.20
2019-05-03T09:36:21.571Z,13.88
2019-05-03T09:38:55.050Z,15.43
2019-05-03T09:41:30.398Z,10.65
2019-05-03T09:44:06.791Z,11.57
2019-05-03T09:46:48.444Z,10.58
2019-05-03T09:49:25.435Z,9.37
2019-05-03T09:52:02.491Z,9.75
2019-05-03T09:54:45.429Z,9.68
2019-05-03T09:57:17.387Z,7.87
2019-05-03T09:59:57.098Z,8.23
2019-05-03T10:02:35.285Z,8.48
2019-05-03T10:05:15.491Z,7.67
2019-05-03T10:07:48.670Z,7.03
2019-05-03T10:10:22.217Z,6.70
2019-05-03T10:12:55.930Z,7.05
2019-05-03T10:15:46.368Z,8.03
2019-05-03T10:18:21.436Z,8.38
2019-05-03T10:20:57.447Z,10.40
2019-05-03T10:23:36.746Z,8.68
2019-05-03T10:26:16.508Z,10.72
2019-05-03T10:28:49.353Z,9.48
2019-05-03T10:31:28.015Z,7.47
2019-05-03T10:34:05.826Z,6.80
2019-05-03T10:36:38.904Z,7.12
2019-05-03T10:39:10.959Z,5.75
2019-05-03T10:41:45.506Z,4.95
2019-05-03T10:44:17.463Z,7.42
2019-05-03T10:46:49.485Z,5.80
2019-05-03T10:49:24.534Z,4.15
2019-05-03T10:51:59.065Z,7.75
2019-05-03T10:54:31.054Z,7.00
2019-05-03T10:57:09.306Z,4.22
2019-05-03T10:59:41.298Z,4.55
2019-05-03T11:02:28.182Z,4.95
2019-05-03T11:05:01.095Z,4.45
2019-05-03T11:07:39.145Z,5.03
2019-05-03T11:10:12.016Z,7.28
2019-05-03T11:12:44.056Z,5.40
2019-05-03T11:15:16.603Z,5.12
2019-05-03T11:17:55.861Z,5.03
2019-05-03T11:20:38.785Z,4.72
2019-05-03T11:23:14.588Z,5.92
2019-05-03T11:25:48.942Z,5.80
2019-05-03T11:28:24.920Z,5.22
2019-05-03T11:31:02.316Z,5.10
2019-05-03T11:33:45.773Z,5.33
2019-05-03T11:36:22.272Z,5.35
2019-05-03T11:38:55.850Z,4.17
2019-05-03T11:41:32.996Z,4.95
2019-05-03T11:44:24.576Z,6.70
2019-05-03T11:46:57.903Z,5.70
2019-05-03T11:49:34.488Z,13.23
2019-05-03T11:52:09.747Z,7.60
2019-05-03T11:54:47.586Z,6.55
2019-05-03T11:57:23.988Z,5.00
2019-05-03T12:00:01.330Z,5.50
2019-05-03T12:02:35.831Z,4.42
2019-05-03T12:05:11.632Z,6.08
2019-05-03T12:07:49.163Z,7.85
2019-05-03T12:10:36.788Z,8.13
2019-05-03T12:13:08.212Z,4.95
2019-05-03T12:15:44.601Z,5.08
2019-05-03T12:18:17.313Z,5.78
2019-05-03T12:20:52.247Z,7.33
2019-05-03T12:23:26.531Z,5.47
2019-05-03T12:26:01.850Z,5.03
2019-05-03T12:28:48.768Z,4.33
2019-05-03T12:31:36.287Z,7.35
2019-05-03T12:34:02.885Z,4.62
2019-05-03T12:36:39.049Z,6.45
2019-05-03T12:39:24.167Z,6.12
2019-05-03T12:41:54.891Z,7.10
2019-05-03T12:44:27.912Z,6.22
2019-05-03T12:47:06.012Z,6.58
2019-05-03T12:49:38.430Z,8.38
2019-05-03T12:52:12.285Z,7.17
2019-05-03T12:54:44.455Z,5.85
2019-05-03T12:57:17.424Z,7.33
2019-05-03T12:59:58.283Z,5.80
2019-05-03T13:02:55.090Z,9.00
2019-05-03T13:05:29.402Z,9.03
2019-05-03T13:08:24.302Z,7.03
2019-05-03T13:10:56.320Z,6.08
2019-05-03T13:13:29.818Z,5.35
2019-05-03T13:16:04.614Z,6.03
2019-05-03T13:18:45.789Z,6.15
2019-05-03T13:21:18.642Z,6.58
2019-05-03T13:23:54.776Z,6.50
2019-05-03T13:26:35.101Z,4.47
2019-05-03T13:29:11.399Z,6.83
2019-05-03T13:31:58.336Z,7.10
2019-05-03T13:34:24.802Z,5.75
2019-05-03T13:36:56.858Z,7.15
2019-05-03T13:39:37.785Z,7.01
2019-05-03T13:42:09.764Z,4.40
2019-05-03T13:44:45.592Z,5.10
2019-05-03T13:47:26.069Z,5.80
2019-05-03T13:49:59.326Z,6.62
2019-05-03T13:52:34.468Z,8.23
2019-05-03T13:55:08.894Z,6.08
2019-05-03T13:57:40.930Z,5.42
2019-05-03T14:00:15.246Z,7.53
2019-05-03T14:02:48.887Z,6.83
2019-05-03T14:05:24.543Z,6.35
2019-05-03T14:08:00.363Z,7.28
2019-05-03T14:10:32.327Z,12.78
2019-05-03T14:13:05.596Z,8.10
2019-05-03T14:15:39.489Z,6.40
2019-05-03T14:18:16.103Z,6.42
2019-05-03T14:20:49.999Z,6.30
2019-05-03T14:23:25.376Z,7.62
2019-05-03T14:25:57.880Z,5.62
2019-05-03T14:28:35.390Z,6.30
2019-05-03T14:31:12.015Z,4.67
2019-05-03T14:33:49.534Z,8.50
2019-05-03T14:36:25.696Z,5.80
2019-05-03T14:38:59.209Z,6.75
2019-05-03T14:41:42.069Z,5.70
2019-05-03T14:44:17.932Z,5.53
2019-05-03T14:46:51.878Z,7.30
2019-05-03T14:49:25.506Z,6.80
2019-05-03T14:51:57.527Z,8.68
2019-05-03T14:54:31.223Z,5.17
2019-05-03T14:57:07.840Z,7.12
2019-05-03T15:00:02.291Z,5.22
2019-05-03T15:02:51.209Z,6.75
2019-05-03T15:05:25.313Z,9.45
2019-05-03T15:07:58.974Z,8.05
2019-05-03T15:10:34.887Z,5.33
2019-05-03T15:13:06.938Z,5.95
2019-05-03T15:15:38.907Z,6.80
2019-05-03T15:18:10.909Z,8.98
2019-05-03T15:20:45.886Z,5.72
2019-05-03T15:23:18.288Z,7.20
2019-05-03T15:25:51.237Z,5.22
2019-05-03T15:28:25.238Z,7.83
2019-05-03T15:33:35.354Z,8.05
2019-05-03T15:36:07.646Z,4.40
2019-05-03T15:38:42.829Z,6.15
2019-05-03T15:41:16.278Z,7.75
2019-05-03T15:44:06.207Z,6.80
2019-05-03T15:46:47.191Z,6.97
2019-05-03T15:49:19.251Z,6.62
2019-05-03T15:51:52.656Z,10.85
2019-05-03T15:54:24.929Z,8.25
2019-05-03T15:56:57.805Z,8.03
2019-05-03T15:59:31.312Z,5.80
2019-05-03T16:02:07.554Z,7.65
2019-05-03T16:04:42.628Z,5.78
2019-05-03T16:07:18.391Z,5.90
2019-05-03T16:09:51.581Z,7.12
2019-05-03T16:12:23.941Z,7.37
2019-05-03T16:14:56.632Z,6.65
2019-05-03T16:17:31.307Z,8.48
2019-05-03T16:20:11.657Z,5.53
2019-05-03T16:22:49.540Z,8.90
2019-05-03T16:25:21.995Z,7.45
2019-05-03T16:28:00.532Z,4.70
2019-05-03T16:30:37.257Z,6.92
2019-05-03T16:33:23.918Z,6.20
2019-05-03T16:35:44.794Z,7.47
2019-05-03T16:38:19.802Z,6.05
2019-05-03T16:40:55.298Z,5.60
2019-05-03T16:43:28.085Z,8.50
2019-05-03T16:46:00.056Z,5.72
2019-05-03T16:48:32.404Z,7.85
2019-05-03T16:51:04.378Z,5.03
2019-05-03T16:53:37.059Z,7.42
2019-05-03T16:56:12.516Z,13.18
2019-05-03T16:58:48.816Z,7.75
2019-05-03T17:01:25.752Z,7.00
2019-05-03T17:03:59.372Z,7.03
2019-05-03T17:06:34.892Z,7.30
2019-05-03T17:09:26.023Z,8.75
2019-05-03T17:12:09.753Z,4.83
2019-05-03T17:14:46.110Z,8.55
2019-05-03T17:17:20.987Z,10.18
2019-05-03T17:19:55.101Z,9.08
2019-05-03T17:22:34.357Z,7.83
2019-05-03T17:25:10.912Z,6.00
2019-05-03T17:27:48.436Z,5.78
2019-05-03T17:30:33.819Z,7.80
2019-05-03T17:33:04.453Z,7.37
2019-05-03T17:35:45.981Z,8.78
2019-05-03T17:38:35.249Z,11.75
2019-05-03T17:41:14.901Z,7.17
2019-05-03T17:43:48.663Z,7.72
2019-05-03T17:46:22.239Z,10.68
2019-05-03T17:48:57.752Z,8.95
2019-05-03T17:51:45.472Z,8.48
2019-05-03T17:54:30.182Z,11.48
2019-05-03T17:57:11.225Z,7.03
2019-05-03T17:59:51.565Z,11.53
2019-05-03T18:02:41.461Z,9.50
2019-05-03T18:05:36.598Z,8.03
2019-05-03T18:08:10.623Z,12.95
2019-05-03T18:10:47.799Z,11.83
2019-05-03T18:13:21.299Z,9.95
2019-05-03T18:15:59.638Z,10.88
2019-05-03T18:18:31.919Z,9.38
2019-05-03T18:21:08.579Z,7.67
2019-05-03T18:23:45.511Z,7.05
2019-05-03T18:26:20.026Z,9.08
2019-05-03T18:28:55.175Z,10.50
2019-05-03T18:31:30.768Z,7.95
2019-05-03T18:34:06.236Z,12.50
2019-05-03T18:36:46.089Z,10.60
2019-05-03T18:39:21.347Z,9.50
2019-05-03T18:42:08.375Z,8.55
2019-05-03T18:45:04.611Z,17.10
2019-05-03T18:47:39.849Z,8.33
2019-05-03T18:50:13.453Z,9.58
2019-05-03T18:52:45.410Z,11.12
2019-05-03T18:55:18.903Z,9.80
2019-05-03T18:57:57.040Z,11.22
2019-05-03T19:00:35.473Z,8.80
2019-05-03T19:03:07.594Z,11.88
2019-05-03T19:05:45.550Z,12.07
2019-05-03T19:08:21.991Z,10.13
2019-05-03T19:11:01.577Z,10.05
2019-05-03T19:13:55.266Z,8.50
2019-05-03T19:16:31.705Z,8.58
2019-05-03T19:19:08.949Z,11.25
2019-05-03T19:21:45.400Z,10.45
2019-05-03T19:24:21.560Z,11.18
2019-05-03T19:26:59.217Z,16.12
2019-05-03T19:29:36.633Z,11.43
2019-05-03T19:32:16.265Z,13.43
2019-05-03T19:34:54.908Z,11.35
2019-05-03T19:37:28.718Z,9.55
2019-05-03T19:40:02.533Z,8.43
2019-05-03T19:42:36.007Z,8.03
2019-05-03T19:45:09.205Z,12.00
2019-05-03T19:47:41.487Z,12.82
2019-05-03T19:50:18.924Z,10.58
2019-05-03T19:53:05.134Z,9.65
2019-05-03T19:55:44.859Z,9.75
2019-05-03T19:58:19.133Z,13.78
2019-05-03T20:00:54.889Z,10.13
2019-05-03T20:03:36.381Z,10.60
2019-05-03T20:06:32.081Z,11.22
2019-05-03T20:09:11.415Z,14.30
2019-05-03T20:11:46.657Z,12.30
2019-05-03T20:14:20.901Z,11.57
2019-05-03T20:16:56.728Z,10.25
2019-05-03T20:19:29.934Z,11.30
2019-05-03T20:22:05.135Z,10.48
2019-05-03T20:24:41.050Z,13.83
2019-05-03T20:27:15.019Z,13.15
2019-05-03T20:29:47.514Z,13.05
2019-05-03T20:32:20.751Z,17.25
2019-05-03T20:34:55.136Z,13.58
2019-05-03T20:37:28.994Z,12.95
2019-05-03T20:40:00.956Z,14.28
2019-05-03T20:42:51.629Z,15.90
2019-05-03T20:48:52.807Z,12.37
2019-05-03T20:51:30.369Z,15.75
2019-05-03T20:54:04.844Z,14.90
2019-05-03T20:56:37.569Z,13.28
2019-05-03T20:59:09.529Z,12.95
2019-05-03T21:01:42.854Z,20.52
2019-05-03T21:04:15.485Z,17.97
2019-05-03T21:06:50.624Z,16.45
2019-05-03T21:09:23.054Z,19.35
2019-05-03T21:12:00.768Z,22.07
2019-05-03T21:14:34.886Z,17.40
2019-05-03T21:17:14.935Z,16.27
2019-05-03T21:19:57.812Z,17.57
2019-05-03T21:22:36.122Z,19.05
2019-05-03T21:25:15.337Z,18.77
2019-05-03T21:27:50.458Z,19.52
2019-05-03T21:30:26.201Z,26.05
2019-05-03T21:33:01.950Z,20.08
2019-05-03T21:35:41.857Z,19.77
2019-05-03T21:38:16.852Z,21.33
2019-05-03T21:40:54.528Z,21.80
2019-05-03T21:43:27.642Z,23.83
2019-05-03T21:46:08.684Z,21.53
2019-05-03T21:48:48.867Z,20.08
2019-05-03T21:51:24.383Z,24.60
2019-05-03T21:54:25.465Z,23.90
2019-05-03T21:57:00.047Z,23.85
2019-05-03T21:59:36.279Z,25.20
2019-05-03T22:04:08.841Z,24.80
2019-05-03T22:06:45.964Z,27.58
2019-05-03T22:09:18.203Z,27.70
2019-05-03T22:11:54.881Z,26.05
2019-05-03T22:14:49.037Z,31.85
2019-05-03T22:18:39.900Z,29.80
2019-05-03T22:21:34.619Z,31.30
2019-05-03T22:24:25.231Z,32.78
2019-05-03T22:27:04.831Z,38.33
2019-05-03T22:29:56.454Z,32.38
2019-05-03T22:32:35.475Z,32.83
2019-05-03T22:35:10.457Z,34.50
2019-05-03T22:37:56.952Z,32.55
2019-05-03T22:40:30.452Z,32.63
2019-05-03T22:43:08.025Z,35.92
2019-05-03T22:45:45.590Z,35.80
2019-05-03T22:48:26.414Z,31.93
2019-05-03T22:51:00.258Z,31.07
2019-05-03T22:53:37.322Z,33.08
2019-05-03T22:56:14.804Z,32.80
2019-05-03T22:58:54.812Z,29.67
2019-05-03T23:01:30.012Z,33.50
2019-05-03T23:04:02.001Z,31.02
2019-05-03T23:06:33.980Z,33.10
2019-05-03T23:09:07.049Z,30.70
2019-05-03T23:11:45.027Z,29.55
2019-05-03T23:14:22.357Z,32.85
2019-05-03T23:17:01.062Z,30.68
2019-05-03T23:19:36.222Z,34.00
2019-05-03T23:22:16.791Z,28.77
2019-05-03T23:24:54.794Z,28.98
2019-05-03T23:27:32.912Z,31.55
2019-05-03T23:30:11.601Z,36.45
2019-05-03T23:32:45.309Z,34.13
2019-05-03T23:35:19.774Z,32.30
2019-05-03T23:37:54.334Z,30.75
2019-05-03T23:40:29.287Z,31.57
2019-05-03T23:45:37.066Z,29.98
2019-05-03T23:48:10.953Z,27.40
2019-05-03T23:50:44.638Z,30.55
2019-05-03T23:53:19.604Z,32.30
2019-05-03T23:56:01.782Z,26.55
2019-05-03T23:58:35.426Z,29.65
